Time;durP1;ratioP1;P1;durP2;ratioP2;P2;SDS_P1;SDS_P2;PMS_P1;PMS_P2;Temp;Humidity;BMP_temperature;BMP_pressure;BME280_temperature;BME280_humidity;BME280_pressure;Samples;Min_cycle;Max_cycle;Signal;HPM_P1;HPM_P2
2023/11/17 00:00:14;;;;;;;5.68;1.95;;;;;;;-0.07;70.43;99583.16;6270253;22;20023;-90
2023/11/17 00:02:41;;;;;;;9.15;1.92;;;;;;;-0.32;69.71;99530.53;6269089;22;20019;-92
2023/11/17 00:05:07;;;;;;;2.95;1.80;;;;;;;-0.16;70.68;99555.03;6248189;22;20046;-90
2023/11/17 00:08:22;;;;;;;3.20;1.60;;;;;;;0.03;71.82;99572.63;6246654;22;20019;-90
2023/11/17 00:10:48;;;;;;;2.28;1.67;;;;;;;-0.09;70.07;99537.72;6294782;22;20022;-92
2023/11/17 00:13:24;;;;;;;2.05;1.35;;;;;;;-0.18;66.86;99546.38;6268708;22;20023;-92
2023/11/17 00:15:51;;;;;;;3.13;1.88;;;;;;;-0.15;64.85;99567.41;6244082;22;20043;-90
2023/11/17 00:18:29;;;;;;;2.70;1.55;;;;;;;-0.53;65.28;99521.22;6269348;22;20086;-89
2023/11/17 00:20:56;;;;;;;3.55;1.88;;;;;;;-0.37;66.19;99537.66;6244215;22;20019;-88
2023/11/17 00:23:21;;;;;;;4.20;1.88;;;;;;;-0.21;66.48;99560.28;6268550;22;20087;-90
2023/11/17 00:25:55;;;;;;;2.33;1.70;;;;;;;-0.41;67.93;99518.50;6269875;22;20023;-91
2023/11/17 00:28:21;;;;;;;7.80;2.17;;;;;;;0.01;67.28;99579.31;6246809;22;20033;-90
2023/11/17 00:30:48;;;;;;;3.67;1.95;;;;;;;0.15;67.46;99605.66;6298269;22;20468;-90
2023/11/17 00:36:19;;;;;;;3.35;1.85;;;;;;;-0.17;67.79;99537.25;6298248;22;20079;-89
2023/11/17 00:39:17;;;;;;;5.20;1.83;;;;;;;0.26;67.20;99605.88;6246368;22;20020;-89
2023/11/17 00:41:52;;;;;;;3.78;2.10;;;;;;;0.11;66.52;99571.44;6248019;22;20049;-90
2023/11/17 00:44:18;;;;;;;2.10;1.63;;;;;;;0.26;67.67;99582.50;6248017;22;20015;-91
2023/11/17 00:46:45;;;;;;;4.78;1.88;;;;;;;0.08;68.65;99535.09;6246036;22;20030;-91
2023/11/17 00:49:12;;;;;;;4.72;2.10;;;;;;;0.13;68.01;99531.69;6244588;22;20019;-91
2023/11/17 00:51:49;;;;;;;;;;;;;;;0.54;67.06;99607.78;6245342;22;20338;-91
2023/11/17 00:54:25;;;;;;;11.80;2.75;;;;;;;0.19;67.81;99553.06;6243259;22;19923;-91
2023/11/17 00:56:54;;;;;;;4.20;2.22;;;;;;;-0.09;68.05;99510.03;6242867;22;20018;-91
2023/11/17 00:59:33;;;;;;;3.90;1.90;;;;;;;0.31;68.09;99595.22;6267947;22;20019;-90
2023/11/17 01:02:04;;;;;;;3.95;1.98;;;;;;;-0.14;66.98;99526.88;6219974;22;20023;-89
2023/11/17 01:04:32;;;;;;;5.75;2.10;;;;;;;-0.06;65.49;99523.81;6272969;22;20518;-92
2023/11/17 01:07:04;;;;;;;4.80;2.20;;;;;;;0.10;66.90;99546.44;6247041;22;20041;-90
2023/11/17 01:09:57;;;;;;;7.43;2.15;;;;;;;0.59;67.59;99611.38;6295562;22;20249;-89
2023/11/17 01:12:25;;;;;;;6.35;2.63;;;;;;;0.06;66.22;99531.00;6269800;22;20015;-91
2023/11/17 01:15:19;;;;;;;3.90;2.20;;;;;;;0.64;65.20;99603.41;6269563;22;20034;-91
2023/11/17 01:17:55;;;;;;;5.63;2.78;;;;;;;0.07;65.43;99546.09;6237512;22;20026;-90
2023/11/17 01:20:21;;;;;;;4.85;2.60;;;;;;;0.17;65.97;99555.19;6292528;22;20125;-89
2023/11/17 01:23:01;;;;;;;4.05;2.30;;;;;;;-0.01;65.94;99523.09;6230012;23;20072;-90
2023/11/17 01:25:32;;;;;;;5.47;2.80;;;;;;;0.26;64.95;99558.28;6205804;23;20016;-92
2023/11/17 01:28:03;;;;;;;3.20;1.80;;;;;;;0.65;65.26;99612.28;6181682;23;20024;-90
2023/11/17 01:30:31;;;;;;;5.65;2.30;;;;;;;0.62;64.28;99618.16;6185795;23;20023;-89
2023/11/17 01:32:57;;;;;;;4.05;2.28;;;;;;;0.22;64.45;99559.84;6209614;23;20086;-90
2023/11/17 01:35:23;;;;;;;6.35;2.25;;;;;;;0.40;66.16;99596.50;6259514;23;20016;-89
2023/11/17 01:37:56;;;;;;;3.50;2.00;;;;;;;-0.14;65.44;99512.63;6183883;23;20024;-90
2023/11/17 01:40:26;;;;;;;4.00;2.40;;;;;;;0.56;66.39;99627.16;6233286;23;20016;-88
2023/11/17 01:42:52;;;;;;;4.65;2.17;;;;;;;0.55;66.66;99629.03;6182207;23;20067;-92
2023/11/17 01:45:24;;;;;;;3.60;1.92;;;;;;;0.20;66.82;99584.28;6182014;23;20015;-90
2023/11/17 01:47:50;;;;;;;5.88;2.95;;;;;;;0.13;64.72;99548.66;6158507;23;20050;-90
2023/11/17 01:50:16;;;;;;;3.50;1.80;;;;;;;0.62;64.23;99621.66;6184447;23;20012;-89
2023/11/17 01:52:43;;;;;;;4.57;2.00;;;;;;;0.08;64.94;99548.53;6237878;22;20036;-92
2023/11/17 01:55:11;;;;;;;4.70;2.15;;;;;;;0.28;62.12;99601.09;6296560;22;20015;-91
2023/11/17 01:57:40;;;;;;;2.83;1.65;;;;;;;-0.05;61.32;99540.75;6271456;22;20031;-91
2023/11/17 02:00:13;;;;;;;;;;;;;;;0.70;62.43;99653.56;6221977;22;20046;-90
2023/11/17 02:02:47;;;;;;;4.63;1.90;;;;;;;0.39;62.86;99625.22;6322721;22;19911;-89
2023/11/17 02:05:17;;;;;;;4.78;1.63;;;;;;;0.16;63.94;99582.28;6246480;22;20034;-90
2023/11/17 02:08:07;;;;;;;3.88;2.03;;;;;;;0.52;64.10;99656.44;6270954;22;20494;-90
2023/11/17 02:10:50;;;;;;;3.47;1.70;;;;;;;0.52;62.45;99655.59;6272275;22;20023;-91
2023/11/17 02:13:25;;;;;;;2.70;1.60;;;;;;;0.58;62.88;99662.72;6271274;22;20445;-89
2023/11/17 02:15:57;;;;;;;3.63;1.70;;;;;;;0.52;64.06;99674.44;6273523;22;20047;-90
2023/11/17 02:18:30;;;;;;;2.70;1.73;;;;;;;0.31;64.43;99631.00;6222455;22;20039;-92
2023/11/17 02:21:21;;;;;;;3.00;1.80;;;;;;;0.42;64.24;99642.78;6262655;22;20019;-91
2023/11/17 02:23:53;;;;;;;4.32;1.70;;;;;;;0.12;64.63;99605.31;6172582;22;20023;-90
2023/11/17 02:26:52;;;;;;;3.92;1.60;;;;;;;0.53;62.10;99674.22;6247236;22;20018;-90
2023/11/17 02:29:27;;;;;;;5.45;2.08;;;;;;;0.60;63.05;99680.28;6247503;22;20029;-90
2023/11/17 02:31:58;;;;;;;3.95;2.00;;;;;;;0.20;62.73;99613.84;6248868;22;20015;-92
2023/11/17 02:35:01;;;;;;;4.80;2.17;;;;;;;-0.06;62.26;99587.50;6278982;22;20035;-91
2023/11/17 02:37:29;;;;;;;4.03;2.00;;;;;;;0.30;62.18;99644.66;6248462;22;20019;-91
2023/11/17 02:39:56;;;;;;;5.60;2.80;;;;;;;0.27;63.10;99643.28;6197613;22;20041;-92
2023/11/17 02:42:26;;;;;;;5.53;1.98;;;;;;;-0.12;63.66;99591.94;6300753;22;20336;-90
2023/11/17 02:44:52;;;;;;;3.95;2.03;;;;;;;0.35;63.28;99671.69;6224710;22;20026;-94
2023/11/17 02:47:27;;;;;;;4.60;2.15;;;;;;;0.28;62.91;99647.59;6274339;22;20022;-88
2023/11/17 02:50:21;;;;;;;3.30;1.92;;;;;;;0.24;62.91;99633.00;6277555;22;20018;-90
2023/11/17 02:53:24;;;;;;;3.20;1.95;;;;;;;0.36;64.39;99665.22;6303009;22;20015;-91
2023/11/17 02:55:52;;;;;;;3.20;1.88;;;;;;;0.09;64.33;99628.13;6273069;22;20022;-90
2023/11/17 02:58:18;;;;;;;2.75;1.88;;;;;;;0.29;64.74;99659.19;6272434;22;20011;-89
2023/11/17 03:00:56;;;;;;;5.07;1.92;;;;;;;0.36;65.59;99659.84;6273568;22;20007;-92
2023/11/17 03:03:23;;;;;;;2.28;1.35;;;;;;;0.21;63.42;99669.25;6239576;23;20016;-91
2023/11/17 03:05:59;;;;;;;3.80;2.05;;;;;;;0.18;62.96;99642.03;6236724;23;20024;-90
2023/11/17 03:08:26;;;;;;;2.92;1.75;;;;;;;0.51;62.85;99683.56;6263154;23;20044;-90
2023/11/17 03:11:10;;;;;;;3.50;1.98;;;;;;;0.34;63.03;99660.09;6214157;23;20119;-90
2023/11/17 03:13:39;;;;;;;4.13;1.80;;;;;;;0.23;60.26;99660.94;6212646;23;20183;-91
2023/11/17 03:16:09;;;;;;;3.38;1.90;;;;;;;0.36;63.52;99682.19;6213288;23;20024;-90
2023/11/17 03:18:57;;;;;;;5.38;2.17;;;;;;;0.30;63.20;99676.94;6109755;23;20023;-90
2023/11/17 03:21:23;;;;;;;3.22;1.83;;;;;;;0.35;62.57;99682.44;6089083;23;20022;-92
2023/11/17 03:23:51;;;;;;;2.35;1.42;;;;;;;0.45;59.90;99693.41;6067425;23;20029;-89
2023/11/17 03:26:17;;;;;;;1.75;1.23;;;;;;;0.20;58.58;99664.13;6067413;23;20027;-91
2023/11/17 03:28:43;;;;;;;2.70;1.60;;;;;;;0.31;58.27;99687.47;6090237;23;20169;-90
2023/11/17 03:31:13;;;;;;;2.25;1.52;;;;;;;0.21;60.33;99688.06;6117240;23;20018;-91
2023/11/17 03:33:44;;;;;;;2.38;1.58;;;;;;;0.43;61.66;99720.53;6115466;23;20018;-90
2023/11/17 03:36:38;;;;;;;3.03;1.63;;;;;;;0.65;61.23;99726.09;6070040;23;20018;-89
2023/11/17 03:39:12;;;;;;;2.10;1.55;;;;;;;0.51;61.46;99697.84;6067165;23;20026;-90
2023/11/17 03:41:40;;;;;;;2.88;1.70;;;;;;;0.64;61.53;99713.72;6069745;23;20018;-91
2023/11/17 03:44:07;;;;;;;6.38;2.00;;;;;;;0.63;58.93;99722.84;6121487;23;20018;-90
2023/11/17 03:46:35;;;;;;;2.95;1.88;;;;;;;0.22;59.62;99697.75;6145101;23;20010;-89
2023/11/17 03:49:16;;;;;;;;;;;;;;;0.28;60.17;99730.97;6099086;23;20017;-91
2023/11/17 03:51:50;;;;;;;3.28;1.85;;;;;;;-0.30;60.66;99652.00;6122420;23;19921;-91
2023/11/17 03:54:21;;;;;;;2.03;1.50;;;;;;;0.11;60.46;99738.09;6100425;23;20018;-91
2023/11/17 03:57:01;;;;;;;3.53;2.13;;;;;;;-0.06;62.27;99722.66;6282072;22;20019;-90
2023/11/17 04:03:13;;;;;;;5.13;2.15;;;;;;;-0.49;63.80;99696.13;6335030;22;20019;-90
2023/11/17 04:06:00;;;;;;;5.38;2.10;;;;;;;-0.74;64.00;99656.84;6307447;22;20003;-90
2023/11/17 04:08:27;;;;;;;4.78;2.42;;;;;;;-0.95;63.56;99642.09;6257845;22;20015;-91
2023/11/17 04:10:53;;;;;;;4.95;2.40;;;;;;;-0.65;63.90;99686.88;6257544;22;20034;-91
2023/11/17 04:13:24;;;;;;;9.35;2.55;;;;;;;-0.50;64.04;99713.25;6282965;22;20045;-91
2023/11/17 04:15:52;;;;;;;5.18;2.63;;;;;;;-0.36;63.45;99740.75;6281814;22;20027;-87
2023/11/17 04:18:22;;;;;;;4.38;1.98;;;;;;;-0.75;63.97;99697.34;6306714;22;20019;-90
2023/11/17 04:21:13;;;;;;;3.65;2.17;;;;;;;-0.48;64.64;99768.38;6232638;22;20017;-88
2023/11/17 04:23:40;;;;;;;3.45;2.22;;;;;;;-0.84;64.46;99693.34;6332757;22;20015;-90
2023/11/17 04:32:31;;;;;;;5.25;2.40;;;;;;;-0.51;64.57;99757.28;6273165;22;20032;-92
2023/11/17 04:35:18;;;;;;;4.88;2.38;;;;;;;-0.88;64.83;99703.72;6172238;23;20008;-89
2023/11/17 04:37:45;;;;;;;3.67;2.13;;;;;;;-1.04;65.28;99680.22;6131381;23;20033;-90
2023/11/17 04:40:12;;;;;;;11.85;2.50;;;;;;;-0.67;64.85;99763.31;6133680;23;20008;-92
2023/11/17 04:43:00;;;;;;;5.32;2.50;;;;;;;-0.65;65.10;99769.28;6108299;23;20111;-91
2023/11/17 04:54:15;;;;;;;7.05;2.08;;;;;;;-0.92;67.06;99720.50;6332928;22;20027;-92
2023/11/17 04:56:42;;;;;;;5.82;3.30;;;;;;;-0.80;67.13;99748.19;6253338;22;20023;-91
2023/11/17 04:59:18;;;;;;;5.20;2.78;;;;;;;-0.80;67.41;99742.81;6283906;22;20039;-90
2023/11/17 05:02:17;;;;;;;4.82;2.60;;;;;;;-0.57;66.77;99777.81;6286553;22;20023;-90
2023/11/17 05:04:43;;;;;;;3.88;2.47;;;;;;;-0.73;66.55;99749.75;6256330;22;20019;-90
2023/11/17 05:07:14;;;;;;;4.40;2.45;;;;;;;-0.58;66.79;99775.38;6330970;22;20349;-90
2023/11/17 05:09:42;;;;;;;4.72;2.40;;;;;;;-0.90;67.16;99729.94;6258120;22;20027;-92
2023/11/17 05:12:13;;;;;;;7.00;3.10;;;;;;;-0.76;66.33;99746.72;6307099;22;20026;-88
2023/11/17 05:14:41;;;;;;;4.57;2.47;;;;;;;-0.85;64.27;99756.94;6277709;22;20023;-90
2023/11/17 05:17:15;;;;;;;4.80;2.20;;;;;;;-1.02;63.84;99748.69;6302060;22;20045;-90
2023/11/17 05:19:45;;;;;;;6.18;2.75;;;;;;;-1.36;63.98;99698.38;6305529;22;20051;-90
2023/11/17 05:22:32;;;;;;;3.03;1.70;;;;;;;-0.72;64.37;99801.59;6258734;22;20016;-88
2023/11/17 05:24:58;;;;;;;7.00;2.45;;;;;;;-1.00;64.31;99764.56;6278596;22;19999;-89
2023/11/17 05:27:29;;;;;;;3.10;1.90;;;;;;;-0.88;63.99;99781.56;6277235;22;20016;-89
2023/11/17 05:30:11;;;;;;;2.78;1.60;;;;;;;-0.76;64.03;99825.38;6277645;22;20023;-88
2023/11/17 05:32:42;;;;;;;7.43;2.08;;;;;;;-0.74;64.25;99817.09;6303631;22;20019;-90
2023/11/17 05:35:40;;;;;;;2.30;1.67;;;;;;;-1.22;64.01;99751.63;6233672;22;20027;-92
2023/11/17 05:38:48;;;;;;;5.25;1.77;;;;;;;-1.61;63.26;99727.97;6335408;22;20003;-91
2023/11/17 05:46:54;;;;;;;3.65;1.80;;;;;;;-1.86;63.56;99728.81;6306335;22;20030;-94
2023/11/17 05:50:11;;;;;;;2.15;1.75;;;;;;;-1.14;63.64;99848.94;6267534;22;20027;-91
2023/11/17 05:53:00;;;;;;;4.88;2.15;;;;;;;-1.71;64.04;99766.00;6305812;22;20059;-91
2023/11/17 05:55:41;;;;;;;1.23;1.10;;;;;;;-1.66;64.18;99793.78;6284399;22;20038;-90
2023/11/17 05:58:12;;;;;;;4.78;1.83;;;;;;;-1.45;64.85;99821.22;6253198;22;20005;-90
2023/11/17 06:00:57;;;;;;;4.30;1.98;;;;;;;-1.68;65.21;99790.50;6252131;22;20082;-90
2023/11/17 06:03:32;;;;;;;3.15;1.73;;;;;;;-1.16;64.92;99867.94;6252673;22;20038;-89
2023/11/17 06:06:24;;;;;;;5.15;2.22;;;;;;;-1.19;65.16;99865.72;6251004;22;20045;-90
2023/11/17 06:09:03;;;;;;;2.80;1.83;;;;;;;-1.73;65.19;99784.16;6268575;22;20026;-91
2023/11/17 06:23:42;;;;;;;3.92;2.05;;;;;;;-1.38;65.15;99821.97;6331012;22;20103;-88
2023/11/17 06:26:27;;;;;;;3.85;2.10;;;;;;;-1.07;65.23;99888.06;6333524;22;20036;-89
2023/11/17 06:29:08;;;;;;;5.30;2.83;;;;;;;-1.52;65.03;99805.19;6255043;22;20014;-89
2023/11/17 06:37:21;;;;;;;10.65;3.78;;;;;;;-0.88;66.45;99808.38;6326491;22;20035;-90
2023/11/17 06:40:10;;;;;;;14.18;2.78;;;;;;;-0.54;65.95;99849.84;6247370;22;20030;-90
2023/11/17 06:52:27;;;;;;;3.97;2.15;;;;;;;-0.92;61.57;99819.81;6246638;22;20049;-88
2023/11/17 06:55:57;;;;;;;4.68;2.70;;;;;;;-0.52;61.88;99906.03;6256875;22;20031;-92
2023/11/17 07:01:57;;;;;;;2.65;1.90;;;;;;;-0.80;62.20;99910.06;6291879;22;20024;31
2023/11/17 07:13:33;;;;;;;4.38;2.85;;;;;;;-1.04;62.29;99860.78;6315861;22;20049;-94
2023/11/17 07:16:06;;;;;;;10.38;2.85;;;;;;;-1.14;61.64;99816.75;6280972;22;20015;-91
2023/11/17 07:19:29;;;;;;;5.03;2.40;;;;;;;-0.76;61.05;99873.69;6293564;22;19995;-92
2023/11/17 07:28:31;;;;;;;3.13;1.98;;;;;;;-0.83;59.48;99839.91;6287422;22;20023;-87
2023/11/17 07:31:17;;;;;;;8.48;2.75;;;;;;;-0.43;60.09;99898.47;6244108;22;20019;-89
2023/11/17 07:34:33;;;;;;;4.75;2.13;;;;;;;-0.07;61.71;99932.50;6203552;22;20020;-92
2023/11/17 07:37:18;;;;;;;5.95;2.22;;;;;;;-0.56;60.98;99843.09;6272497;22;20020;-91
2023/11/17 07:43:28;;;;;;;6.78;2.88;;;;;;;0.28;61.71;99937.19;6266254;22;20004;-89
2023/11/17 07:55:41;;;;;;;4.72;2.72;;;;;;;0.53;59.40;99950.44;6321681;22;20078;-90
2023/11/17 07:58:14;;;;;;;5.45;2.30;;;;;;;0.27;60.00;99916.72;6218415;23;20051;-91
2023/11/17 08:01:34;;;;;;;7.07;2.47;;;;;;;0.47;59.00;99952.19;6242511;23;20012;-89
2023/11/17 08:08:06;;;;;;;8.27;2.63;;;;;;;0.83;58.42;99928.81;6329419;22;20038;-89
2023/11/17 08:10:35;;;;;;;7.18;3.53;;;;;;;0.43;57.78;99855.03;6329867;22;20015;-88
2023/11/17 08:13:16;;;;;;;5.97;2.53;;;;;;;0.85;58.22;99930.22;6275081;22;20411;-89
2023/11/17 08:15:48;;;;;;;6.00;3.00;;;;;;;0.85;57.47;99922.16;6323159;22;20019;-87
2023/11/17 08:18:18;;;;;;;6.47;2.92;;;;;;;1.18;56.88;99937.72;6303247;22;20003;-88
2023/11/17 08:20:52;;;;;;;9.27;3.10;;;;;;;1.25;56.68;99920.59;6276563;22;20078;-88
2023/11/17 08:23:19;;;;;;;8.00;2.70;;;;;;;1.46;56.08;99938.00;6247351;22;20078;-89
2023/11/17 08:28:48;;;;;;;11.30;3.70;;;;;;;1.27;53.46;99876.22;6331978;22;20023;-91
2023/11/17 08:31:16;;;;;;;5.30;2.97;;;;;;;1.76;54.07;99948.63;6259760;22;20019;-92
2023/11/17 09:00:18;;;;;;;5.57;2.20;;;;;;;1.63;52.13;99977.47;6276515;22;20037;-92
2023/11/17 09:33:08;;;;;;;8.23;2.92;;;;;;;1.63;52.60;100007.13;6289467;22;20094;-92
2023/11/17 09:36:00;;;;;;;15.65;3.38;;;;;;;1.49;52.21;99946.47;6297020;22;20032;-89
2023/11/17 09:38:57;;;;;;;3.92;2.58;;;;;;;1.43;50.94;99977.03;6298838;22;20024;-91
2023/11/17 09:41:50;;;;;;;5.68;2.97;;;;;;;1.34;51.42;99984.66;6229401;22;20030;-91
2023/11/17 09:53:04;;;;;;;7.47;2.70;;;;;;;0.73;51.09;99944.72;6297724;22;20063;-90
2023/11/17 10:48:28;;;;;;;2.58;1.83;;;;;;;0.25;52.48;100058.66;6243600;22;20036;-91
2023/11/17 11:18:08;;;;;;;13.35;2.47;;;;;;;0.74;49.43;100010.97;6121675;23;20030;-90
2023/11/17 11:23:34;;;;;;;3.63;2.13;;;;;;;0.37;51.35;99979.66;6265034;22;20027;-92
2023/11/17 11:26:06;;;;;;;4.45;3.03;;;;;;;0.65;52.16;100035.50;6193479;23;20008;-91
2023/11/17 11:28:34;;;;;;;6.43;3.13;;;;;;;0.80;53.80;100080.03;6190099;23;20028;-89
2023/11/17 11:31:06;;;;;;;5.55;2.78;;;;;;;0.31;54.93;99993.19;6181059;23;20021;-91
2023/11/17 11:33:36;;;;;;;7.35;3.20;;;;;;;0.93;55.30;100074.44;6118000;23;20047;-89
2023/11/17 11:36:21;;;;;;;7.82;3.92;;;;;;;0.80;54.37;100037.78;6120951;23;20081;-91
2023/11/17 11:39:07;;;;;;;6.93;3.60;;;;;;;0.71;54.07;100049.91;6119547;23;20022;-91
2023/11/17 11:45:20;;;;;;;4.90;2.25;;;;;;;0.23;53.00;100024.75;6287687;22;20028;-91
2023/11/17 11:48:00;;;;;;;3.22;2.10;;;;;;;-0.11;53.31;99980.50;6249002;22;19995;-90
2023/11/17 12:00:18;;;;;;;5.65;2.65;;;;;;;0.52;52.96;100102.97;6316699;22;20035;-90
2023/11/17 12:03:30;;;;;;;5.43;2.47;;;;;;;0.45;53.58;100099.53;6159678;23;20028;-89
2023/11/17 12:05:59;;;;;;;6.00;3.50;;;;;;;0.22;54.26;100082.25;6180367;23;20021;-88
2023/11/17 12:08:29;;;;;;;8.50;2.92;;;;;;;0.03;54.88;100082.47;6207774;23;20009;-92
2023/11/17 12:11:23;;;;;;;12.02;4.03;;;;;;;-0.12;56.20;100053.31;6183535;23;20017;-90
2023/11/17 12:13:59;;;;;;;6.95;2.80;;;;;;;0.16;55.76;100122.66;6175164;23;20025;-90
2023/11/17 12:19:33;;;;;;;4.50;2.85;;;;;;;-0.09;56.87;100096.69;6298360;22;20023;-90
2023/11/17 12:22:13;;;;;;;12.70;3.83;;;;;;;0.21;57.36;100126.31;6272469;22;20027;-90
2023/11/17 12:24:43;;;;;;;13.85;3.08;;;;;;;-0.04;57.33;100104.06;6239150;22;20032;-89
2023/11/17 12:27:14;;;;;;;4.72;2.42;;;;;;;-0.28;58.03;100078.91;6216240;23;20013;-91
2023/11/17 12:29:42;;;;;;;4.78;3.22;;;;;;;-0.50;58.33;100039.06;6191798;23;20012;-91
2023/11/17 12:35:11;;;;;;;7.05;3.20;;;;;;;-0.28;58.68;100085.09;6295960;22;20020;-91
2023/11/17 12:37:51;;;;;;;4.70;2.88;;;;;;;0.18;57.89;100156.34;6246621;22;20051;-90
2023/11/17 12:40:28;;;;;;;5.65;2.90;;;;;;;-0.53;57.67;100054.75;6175754;22;20016;-91
2023/11/17 12:43:21;;;;;;;7.03;3.13;;;;;;;0.17;57.89;100162.78;6246819;22;20026;-89
2023/11/17 12:45:49;;;;;;;4.18;2.85;;;;;;;0.20;57.16;100169.56;6270878;22;20019;-90
2023/11/17 12:48:17;;;;;;;5.22;2.90;;;;;;;-0.11;57.27;100116.75;6270359;22;20016;-89
2023/11/17 12:50:48;;;;;;;4.68;2.50;;;;;;;-0.35;56.00;100075.47;6269529;22;20019;-90
2023/11/17 12:53:41;;;;;;;7.75;2.80;;;;;;;0.22;56.61;100179.03;6219958;22;20024;-91
2023/11/17 12:56:51;;;;;;;5.90;2.50;;;;;;;-0.06;55.55;100151.84;6302062;22;20025;-91
2023/11/17 13:06:12;;;;;;;3.83;2.38;;;;;;;-0.64;55.81;100118.06;6279460;22;20114;-91
2023/11/17 13:09:09;;;;;;;11.18;2.72;;;;;;;-0.17;56.86;100184.81;6275767;22;19991;-91
2023/11/17 13:15:47;;;;;;;12.10;3.55;;;;;;;-0.18;56.00;100185.88;6232196;22;20022;-90
2023/11/17 13:18:17;;;;;;;6.88;3.53;;;;;;;-0.77;55.63;100097.53;6180205;23;20020;-91
2023/11/17 13:26:37;;;;;;;7.55;3.13;;;;;;;-0.10;55.51;100183.72;6308838;22;20403;-89
2023/11/17 13:29:54;;;;;;;10.57;3.28;;;;;;;-0.10;54.98;100185.56;6220288;22;20381;-89
2023/11/17 13:36:56;;;;;;;6.30;2.40;;;;;;;-0.29;52.25;100156.00;6266759;23;20100;-88
2023/11/17 13:39:32;;;;;;;9.02;2.17;;;;;;;-0.49;51.26;100136.56;6218729;23;20026;-87
2023/11/17 13:42:05;;;;;;;5.15;2.20;;;;;;;-0.11;50.83;100200.88;6236975;23;20038;-89
2023/11/17 13:45:24;;;;;;;4.97;2.45;;;;;;;-0.38;50.57;100160.00;6264105;23;20027;-88
2023/11/17 13:51:06;;;;;;;6.82;1.65;;;;;;;-0.56;48.91;100135.81;6326951;22;20031;-88
2023/11/17 13:54:30;;;;;;;2.83;1.85;;;;;;;-0.19;49.05;100211.09;6185593;22;20134;-87
2023/11/17 13:57:47;;;;;;;2.22;1.33;;;;;;;-0.41;48.64;100202.59;6234778;23;20020;-93
2023/11/17 14:00:18;;;;;;;7.10;1.50;;;;;;;-0.64;48.61;100187.06;6212142;23;19996;-93
2023/11/17 14:03:29;;;;;;;2.63;1.83;;;;;;;-0.89;48.97;100138.72;6246593;23;20031;-92
2023/11/17 14:06:11;;;;;;;3.92;2.22;;;;;;;-0.91;49.70;100141.63;6268456;23;20024;-90
2023/11/17 14:08:45;;;;;;;5.78;1.90;;;;;;;-0.84;50.14;100125.47;6215454;22;20039;-92
2023/11/17 14:11:14;;;;;;;8.80;2.30;;;;;;;-0.62;49.97;100153.59;6218317;23;20004;-90
2023/11/17 14:14:21;;;;;;;5.75;2.20;;;;;;;-0.85;50.43;100118.47;6191550;22;20099;-91
2023/11/17 14:16:54;;;;;;;5.22;2.10;;;;;;;-0.40;50.29;100182.75;6242574;23;20062;-91
2023/11/17 14:19:27;;;;;;;4.45;2.95;;;;;;;-0.33;50.78;100184.34;6193675;23;20016;-92
2023/11/17 14:21:56;;;;;;;4.25;2.05;;;;;;;-0.25;49.17;100184.06;6190533;23;20043;-89
2023/11/17 14:24:44;;;;;;;5.65;2.78;;;;;;;-0.39;49.51;100155.69;6225930;23;20108;-89
2023/11/17 14:27:37;;;;;;;5.85;2.25;;;;;;;-0.05;49.96;100223.38;6217150;23;20074;-89
2023/11/17 14:30:17;;;;;;;2.83;2.10;;;;;;;-0.43;49.50;100185.88;6216358;23;20016;-90
2023/11/17 14:32:45;;;;;;;5.55;2.90;;;;;;;-0.46;49.50;100176.41;6266898;23;20016;-90
2023/11/17 14:35:34;;;;;;;11.07;2.30;;;;;;;-0.65;49.65;100153.22;6225546;23;20051;-89
2023/11/17 14:38:07;;;;;;;6.18;2.53;;;;;;;-0.31;50.82;100203.75;6216073;23;20031;-89
2023/11/17 14:40:44;;;;;;;10.88;3.20;;;;;;;-0.14;51.71;100214.75;6190462;23;20202;-91
2023/11/17 14:43:12;;;;;;;5.80;2.55;;;;;;;-0.50;51.52;100159.06;6165975;23;20353;-91
2023/11/17 14:45:44;;;;;;;4.03;2.40;;;;;;;-0.44;51.41;100146.63;6142438;23;20008;-90
2023/11/17 14:49:04;;;;;;;4.55;2.67;;;;;;;-0.24;51.09;100183.00;6270885;22;20011;-88
2023/11/17 14:52:03;;;;;;;5.93;2.83;;;;;;;-0.62;51.58;100140.19;6199527;23;20020;-91
2023/11/17 14:54:36;;;;;;;4.35;2.70;;;;;;;-0.38;52.73;100184.19;6185721;23;20020;-91
2023/11/17 14:57:16;;;;;;;5.03;2.75;;;;;;;-0.17;52.49;100236.69;6182839;23;20043;-90
2023/11/17 14:59:45;;;;;;;11.63;4.30;;;;;;;-0.26;53.28;100233.47;6152773;23;20020;-89
2023/11/17 15:02:13;;;;;;;5.10;3.10;;;;;;;-0.41;53.46;100208.78;6184046;23;20077;-87
2023/11/17 15:04:42;;;;;;;6.68;2.90;;;;;;;-0.40;53.83;100213.13;6210214;23;20016;-88
2023/11/17 15:07:09;;;;;;;4.85;2.50;;;;;;;-0.64;53.27;100173.66;6184968;23;20024;-88
2023/11/17 15:09:38;;;;;;;5.78;3.03;;;;;;;-0.45;53.13;100206.78;6184386;23;20023;-89
2023/11/17 15:12:11;;;;;;;4.97;2.70;;;;;;;-0.58;52.84;100188.91;6159626;23;20035;-89
2023/11/17 15:14:39;;;;;;;7.78;2.67;;;;;;;-0.62;52.53;100188.50;6182766;23;19997;-89
2023/11/17 15:17:08;;;;;;;4.22;2.33;;;;;;;-0.34;51.68;100230.22;6209286;23;20039;-89
2023/11/17 15:19:38;;;;;;;3.78;2.70;;;;;;;-0.45;51.27;100230.94;6206948;23;20036;-88
2023/11/17 15:22:05;;;;;;;3.22;2.28;;;;;;;-0.79;51.19;100173.97;6186260;23;20043;-89
2023/11/17 15:24:40;;;;;;;4.57;2.50;;;;;;;-0.56;50.44;100211.81;6160992;23;20021;-91
2023/11/17 15:27:09;;;;;;;6.80;2.80;;;;;;;-0.68;50.81;100196.63;6209138;23;20036;-90
2023/11/17 15:29:39;;;;;;;4.95;2.65;;;;;;;-0.20;50.90;100264.00;6212401;22;20050;-89
2023/11/17 15:32:27;;;;;;;17.52;3.08;;;;;;;-0.61;50.60;100183.97;6160046;23;20025;-88
2023/11/17 15:34:56;;;;;;;4.05;1.60;;;;;;;-0.40;49.14;100226.53;6214438;22;20066;-90
2023/11/17 15:37:31;;;;;;;2.35;1.50;;;;;;;-0.35;47.75;100240.16;6252086;22;20016;-92
2023/11/17 15:40:12;;;;;;;3.10;1.85;;;;;;;-0.59;47.49;100206.06;6249681;22;20008;-92
2023/11/17 15:42:46;;;;;;;5.72;1.80;;;;;;;-0.79;47.24;100180.16;6183846;23;20013;-89
2023/11/17 15:45:59;;;;;;;9.02;2.20;;;;;;;-0.51;48.14;100246.06;6280213;22;20037;-90
2023/11/17 15:48:58;;;;;;;5.05;1.88;;;;;;;-0.83;48.20;100194.22;6252559;22;20020;-90
2023/11/17 15:51:35;;;;;;;3.45;2.35;;;;;;;-0.33;47.62;100248.84;6283143;22;19992;-92
2023/11/17 16:00:50;;;;;;;3.85;2.47;;;;;;;-0.82;49.45;100175.22;6273374;22;20091;-92
2023/11/17 16:03:23;;;;;;;5.57;2.60;;;;;;;-0.82;49.94;100182.47;6157663;23;20099;-88
2023/11/17 16:05:50;;;;;;;6.82;2.58;;;;;;;-0.32;49.66;100271.97;6184012;23;20077;-91
2023/11/17 16:08:54;;;;;;;14.00;4.72;;;;;;;-0.58;50.75;100199.63;6210515;23;20032;-89
2023/11/17 16:21:22;;;;;;;8.10;2.22;;;;;;;-0.78;47.36;100210.50;6311061;22;20018;-91
2023/11/17 16:30:17;;;;;;;6.60;2.10;;;;;;;-0.36;47.54;100313.75;6331216;22;20010;-90
2023/11/17 16:33:06;;;;;;;12.80;2.47;;;;;;;-0.31;48.00;100305.84;6256184;22;20014;-89
2023/11/17 16:36:11;;;;;;;2.58;1.67;;;;;;;-0.62;49.45;100246.75;6283983;22;20038;-89
2023/11/17 16:38:37;;;;;;;3.97;1.95;;;;;;;-0.70;49.35;100245.13;6280502;22;20023;-89
2023/11/17 16:47:44;;;;;;;3.15;2.20;;;;;;;-0.16;50.61;100318.97;6307372;22;20122;-88
2023/11/17 16:50:42;;;;;;;3.95;2.28;;;;;;;-0.36;48.14;100259.19;6301617;22;20019;-87
2023/11/17 16:53:15;;;;;;;4.05;2.30;;;;;;;-0.03;48.83;100305.44;6275750;22;20039;-90
2023/11/17 17:07:54;;;;;;;6.20;2.42;;;;;;;-0.15;51.18;100338.59;6239139;22;20028;-90
2023/11/17 17:10:59;;;;;;;6.93;1.80;;;;;;;-0.24;51.60;100336.16;6246464;23;20040;-89
2023/11/17 17:13:42;;;;;;;3.35;2.20;;;;;;;-0.46;51.60;100305.34;6242102;23;20024;-91
2023/11/17 17:16:49;;;;;;;4.18;2.03;;;;;;;-0.48;51.77;100318.16;6212171;23;20038;-91
2023/11/17 17:20:45;;;;;;;6.47;2.58;;;;;;;-0.30;52.57;100342.44;6259067;22;20133;-92
2023/11/17 18:08:56;;;;;;;3.10;1.77;;;;;;;-1.43;52.07;100259.72;6315754;22;20649;-88
2023/11/17 18:12:37;;;;;;;4.15;2.42;;;;;;;-0.85;52.22;100352.81;6130963;23;20006;-89
2023/11/17 18:15:52;;;;;;;8.15;2.13;;;;;;;-0.80;52.13;100357.53;6129009;23;20022;-88
2023/11/17 18:19:18;;;;;;;6.00;2.33;;;;;;;-0.76;52.29;100361.47;6098572;23;20029;-90
2023/11/17 18:21:54;;;;;;;4.30;2.10;;;;;;;-1.32;50.89;100277.03;6144944;23;20026;-89
2023/11/17 18:31:59;;;;;;;6.25;2.17;;;;;;;-1.11;50.82;100323.41;6304938;22;20031;-87
2023/11/17 18:47:06;;;;;;;6.45;2.22;;;;;;;-1.12;49.87;100301.13;6291393;22;20087;-91
2023/11/17 18:50:38;;;;;;;3.05;1.17;;;;;;;-0.79;49.97;100376.13;6306972;22;20003;-90
2023/11/17 18:54:42;;;;;;;4.68;2.13;;;;;;;-0.66;48.12;100375.28;6307583;22;20031;31
2023/11/17 18:57:51;;;;;;;2.80;1.85;;;;;;;-0.84;49.29;100377.81;6239388;23;20074;-89
2023/11/17 19:03:15;;;;;;;5.15;2.42;;;;;;;-0.73;48.37;100383.34;6297493;22;20011;-92
2023/11/17 19:06:27;;;;;;;2.78;1.73;;;;;;;-1.20;48.04;100304.00;6301668;22;20034;-88